Terminal Aerodrome Forecast
Issued by NWS

Home | Current Version | Previous Version | Text Only | Print | Product List | Glossary On
Versions: 1 2 3 4 5 6 7 8 9 10 11 12 13 14 15 16 17
000
FTUS42 KGSP 290108 AAA
TAFAND
TAF AMD
KAND 290108Z 2901/2924 25010G17KT P6SM FEW070 SCT110
     FM290400 24007KT P6SM SCT250
     FM291900 26011G19KT P6SM VCTS SCT070CB BKN250=

USA.gov is the U.S. government's official web portal to all federal, state and local government web resources and services.